Time;durP1;ratioP1;P1;durP2;ratioP2;P2;SDS_P1;SDS_P2;PMS_P1;PMS_P2;Temp;Humidity;BMP_temperature;BMP_pressure;BME280_temperature;BME280_humidity;BME280_pressure;Samples;Min_cycle;Max_cycle;Signal;HPM_P1;HPM_P2
2022/09/20 00:02:21;;;;;;;1.85;0.70;;;;;;;9.93;66.36;96298.03;5094188;28;20135;-67
2022/09/20 00:04:49;;;;;;;1.10;1.00;;;;;;;9.86;66.87;96297.38;5094218;28;20615;-66
2022/09/20 00:07:16;;;;;;;0.80;0.80;;;;;;;9.77;67.05;96300.34;5094340;28;20409;-66
2022/09/20 00:09:44;;;;;;;3.88;0.90;;;;;;;9.77;66.59;96289.91;5094166;28;20067;-66
2022/09/20 00:12:11;;;;;;;3.63;0.98;;;;;;;9.77;66.94;96288.16;5094208;28;20492;-66
2022/09/20 00:14:38;;;;;;;0.98;0.88;;;;;;;9.67;66.83;96285.06;5094056;28;20055;-66
2022/09/20 00:17:05;;;;;;;2.58;0.77;;;;;;;9.60;66.91;96281.81;5093926;28;20109;-67
2022/09/20 00:19:32;;;;;;;3.92;0.93;;;;;;;9.60;66.87;96292.25;5094204;28;20482;-67
2022/09/20 00:22:00;;;;;;;1.50;0.90;;;;;;;9.65;64.99;96293.84;5094152;28;20083;-66
2022/09/20 00:24:27;;;;;;;0.98;0.70;;;;;;;9.72;66.16;96283.09;5093771;28;20044;-67
2022/09/20 00:26:56;;;;;;;0.85;0.75;;;;;;;9.65;67.25;96286.00;5093855;28;20486;-66
2022/09/20 00:29:24;;;;;;;3.42;0.88;;;;;;;9.68;67.13;96286.75;5093739;28;20059;-67
2022/09/20 00:31:51;;;;;;;1.52;1.00;;;;;;;9.73;65.77;96302.25;5093729;28;20139;-67
2022/09/20 00:37:02;;;;;;;0.93;0.93;;;;;;;9.98;62.30;96288.22;5093795;28;20051;-66
2022/09/20 00:39:30;;;;;;;0.60;0.57;;;;;;;10.26;60.62;96289.72;5093620;28;20083;-66
2022/09/20 00:41:58;;;;;;;3.38;0.70;;;;;;;10.45;61.74;96281.13;5093663;28;20044;-66
2022/09/20 00:44:43;;;;;;;1.55;0.80;;;;;;;10.61;61.28;96279.59;5093425;28;20063;-67
2022/09/20 00:47:18;;;;;;;0.70;0.70;;;;;;;10.69;63.15;96276.63;5093409;28;20543;-66
2022/09/20 00:49:46;;;;;;;2.47;0.75;;;;;;;10.65;63.14;96275.06;5093797;28;20080;-67
2022/09/20 00:52:13;;;;;;;0.70;0.70;;;;;;;10.65;63.39;96269.84;5093348;28;20047;-67
2022/09/20 00:54:40;;;;;;;1.35;0.80;;;;;;;10.64;64.00;96276.00;5093102;28;20105;-66
2022/09/20 00:57:08;;;;;;;1.10;1.00;;;;;;;10.64;64.46;96278.63;5093295;28;20044;-67
2022/09/20 00:59:40;;;;;;;0.82;0.80;;;;;;;10.54;63.80;96272.06;5093603;28;20044;-67
2022/09/20 01:02:12;;;;;;;0.70;0.70;;;;;;;10.36;64.05;96267.50;5093445;28;20089;-67
2022/09/20 01:04:41;;;;;;;4.40;0.98;;;;;;;10.32;63.50;96259.84;5093456;28;20048;-67
2022/09/20 01:07:11;;;;;;;0.93;0.80;;;;;;;10.31;62.83;96268.63;5093230;28;20056;-67
2022/09/20 01:09:38;;;;;;;1.20;1.10;;;;;;;10.30;64.35;96257.28;5093404;28;20498;-66
2022/09/20 01:12:11;;;;;;;1.85;0.95;;;;;;;10.27;65.14;96259.22;5093232;28;20048;-66
2022/09/20 01:14:39;;;;;;;1.25;0.90;;;;;;;10.19;66.16;96252.53;5093067;28;20052;-67
2022/09/20 01:17:08;;;;;;;0.85;0.85;;;;;;;10.15;66.33;96250.97;5093172;28;20040;-67
2022/09/20 01:19:44;;;;;;;1.00;0.95;;;;;;;10.09;66.72;96253.81;5093193;28;20090;-67
2022/09/20 01:22:21;;;;;;;1.67;1.08;;;;;;;10.09;67.15;96252.03;5093453;28;20040;-67
2022/09/20 01:24:52;;;;;;;1.73;0.80;;;;;;;10.03;66.77;96254.94;5093094;28;20132;-66
2022/09/20 01:27:23;;;;;;;;;;;;;;;10.01;67.09;96259.34;5093468;28;20044;-67
2022/09/20 01:30:03;;;;;;;1.90;0.70;;;;;;;9.93;67.32;96269.28;5093062;28;20011;-67
2022/09/20 01:32:47;;;;;;;0.93;0.90;;;;;;;9.84;67.37;96266.09;5093032;28;20052;-66
2022/09/20 01:35:17;;;;;;;3.30;0.93;;;;;;;9.78;67.52;96268.94;5093112;28;20093;-66
2022/09/20 01:37:59;;;;;;;3.38;0.82;;;;;;;9.71;67.53;96265.75;5093081;28;20095;-67
2022/09/20 01:40:35;;;;;;;4.97;0.98;;;;;;;9.58;67.58;96267.13;5093026;28;20105;-67
2022/09/20 01:43:09;;;;;;;0.98;0.93;;;;;;;9.44;68.11;96267.63;5092933;28;20080;-67
2022/09/20 01:45:45;;;;;;;2.83;0.98;;;;;;;9.31;68.66;96272.47;5092979;28;20079;-67
2022/09/20 01:48:18;;;;;;;1.92;0.95;;;;;;;9.11;68.75;96268.84;5092925;28;20050;-67
2022/09/20 01:51:04;;;;;;;0.80;0.80;;;;;;;9.09;68.66;96274.13;5092723;28;20048;-66
2022/09/20 01:53:59;;;;;;;1.65;0.88;;;;;;;8.96;69.07;96265.88;5092892;28;20047;-67
2022/09/20 01:56:53;;;;;;;1.50;1.00;;;;;;;8.91;69.64;96267.78;5092810;28;20060;-66
2022/09/20 02:00:10;;;;;;;2.25;1.17;;;;;;;8.81;69.99;96269.03;5092679;28;20048;-66
2022/09/20 02:03:16;;;;;;;2.00;1.10;;;;;;;8.65;70.42;96268.72;5069898;28;20088;-67
2022/09/20 02:06:06;;;;;;;1.00;1.00;;;;;;;8.48;70.65;96270.13;5092683;28;20040;-67
2022/09/20 02:09:01;;;;;;;1.10;1.00;;;;;;;8.43;70.56;96266.81;5096541;28;20044;-66
2022/09/20 02:11:33;;;;;;;1.25;1.00;;;;;;;8.38;70.65;96269.59;5096358;28;20044;-66
2022/09/20 02:14:12;;;;;;;0.82;0.82;;;;;;;8.40;71.47;96267.75;5096297;28;20059;-66
2022/09/20 02:16:48;;;;;;;2.28;1.30;;;;;;;8.34;71.78;96268.81;5096334;28;20130;-67
2022/09/20 02:19:52;;;;;;;2.10;1.10;;;;;;;8.29;72.10;96264.66;5096236;28;20044;-66
2022/09/20 02:22:40;;;;;;;1.27;1.13;;;;;;;8.27;72.29;96267.31;5096188;28;20052;-66
2022/09/20 02:25:17;;;;;;;1.33;1.23;;;;;;;8.28;72.25;96271.63;5096314;28;20048;-66
2022/09/20 02:27:59;;;;;;;2.10;1.25;;;;;;;8.29;72.20;96265.53;5096214;28;20401;-67
2022/09/20 02:30:40;;;;;;;6.55;1.27;;;;;;;8.25;72.14;96269.13;5096356;28;20052;-67
2022/09/20 02:33:30;;;;;;;0.75;0.75;;;;;;;8.24;71.77;96275.25;5096035;28;20101;-67
2022/09/20 02:36:14;;;;;;;1.30;1.20;;;;;;;8.24;72.10;96275.25;5096019;28;20083;-67
2022/09/20 02:38:52;;;;;;;1.20;1.08;;;;;;;8.23;72.01;96281.38;5095780;28;20048;-67
2022/09/20 02:41:48;;;;;;;2.63;1.30;;;;;;;8.27;72.25;96277.75;5096106;28;20044;-67
2022/09/20 02:44:25;;;;;;;5.00;1.30;;;;;;;8.20;72.35;96281.47;5095810;28;20048;-67
2022/09/20 02:47:02;;;;;;;2.28;1.02;;;;;;;8.16;72.70;96272.88;5095690;28;20448;-67
2022/09/20 02:49:33;;;;;;;2.45;1.05;;;;;;;8.11;72.50;96277.41;5095625;28;20083;-67
2022/09/20 02:52:16;;;;;;;1.35;1.17;;;;;;;7.93;73.13;96281.44;5095803;28;20060;-67
2022/09/20 02:54:55;;;;;;;3.42;1.00;;;;;;;7.94;73.50;96289.22;5095593;28;20068;-66
2022/09/20 02:57:30;;;;;;;0.80;0.80;;;;;;;7.95;73.58;96290.91;5095657;28;20044;-67
2022/09/20 03:00:02;;;;;;;3.72;1.17;;;;;;;7.94;73.65;96288.34;5095502;28;20098;-66
2022/09/20 03:02:42;;;;;;;1.10;1.00;;;;;;;7.86;73.32;96286.00;5095515;28;20110;-66
2022/09/20 03:05:17;;;;;;;1.17;1.08;;;;;;;7.92;74.14;96296.22;5095538;28;20048;-66
2022/09/20 03:08:04;;;;;;;1.27;0.93;;;;;;;7.90;73.56;96300.63;5095499;28;20050;-65
2022/09/20 03:10:39;;;;;;;1.05;0.95;;;;;;;7.83;74.18;96299.97;5095352;28;20387;-66
2022/09/20 03:13:24;;;;;;;6.75;1.15;;;;;;;7.87;73.84;96292.06;5095174;28;20555;-66
2022/09/20 03:16:08;;;;;;;1.05;0.80;;;;;;;7.86;74.07;96296.44;5095273;28;20052;-66
2022/09/20 03:18:46;;;;;;;1.13;1.02;;;;;;;7.83;74.17;96296.53;5094993;28;20076;-66
2022/09/20 03:21:29;;;;;;;5.63;1.00;;;;;;;7.82;74.08;96302.59;5094953;28;20083;-66
2022/09/20 03:24:10;;;;;;;2.08;0.80;;;;;;;7.84;73.76;96308.63;5095146;28;20490;-66
2022/09/20 03:26:51;;;;;;;1.33;0.82;;;;;;;7.76;73.60;96302.78;5095078;28;20127;-66
2022/09/20 03:29:25;;;;;;;1.05;0.80;;;;;;;7.77;73.98;96305.34;5094861;28;20383;-66
2022/09/20 03:32:07;;;;;;;1.30;1.20;;;;;;;7.74;74.28;96308.06;5095029;28;20050;-66
2022/09/20 03:34:45;;;;;;;2.85;1.10;;;;;;;7.74;74.10;96310.69;5094734;28;20055;-66
2022/09/20 03:37:29;;;;;;;1.27;0.80;;;;;;;7.73;74.18;96308.13;5094809;28;20059;-66
2022/09/20 03:40:36;;;;;;;0.70;0.70;;;;;;;7.62;74.77;96317.09;5094723;28;20044;-66
2022/09/20 03:43:20;;;;;;;1.20;0.80;;;;;;;7.54;75.09;96321.66;5094714;28;20140;-65
2022/09/20 03:46:00;;;;;;;1.50;0.82;;;;;;;7.52;74.86;96323.44;5094710;28;20093;-66
2022/09/20 03:49:03;;;;;;;0.73;0.70;;;;;;;7.50;74.29;96320.06;5094645;28;20417;-66
2022/09/20 03:51:37;;;;;;;1.45;0.80;;;;;;;7.42;75.08;96318.53;5059184;28;20048;-66
2022/09/20 03:54:30;;;;;;;0.80;0.80;;;;;;;7.44;75.20;96328.91;5094527;28;20052;-66
2022/09/20 03:57:48;;;;;;;2.28;0.80;;;;;;;7.45;75.01;96325.41;5094377;28;20173;-66
2022/09/20 04:00:44;;;;;;;0.80;0.80;;;;;;;7.38;74.75;96324.75;5040724;28;20482;-66
2022/09/20 04:03:25;;;;;;;2.17;1.17;;;;;;;7.36;75.44;96329.13;5094221;28;20105;-66
2022/09/20 04:06:04;;;;;;;1.60;0.85;;;;;;;7.28;75.79;96326.72;5094260;28;20080;-66
2022/09/20 04:08:49;;;;;;;1.10;1.00;;;;;;;7.19;75.59;96326.97;5094119;28;20044;-66
2022/09/20 04:11:26;;;;;;;1.40;1.13;;;;;;;7.08;76.20;96322.09;5094047;28;20409;-66
2022/09/20 04:14:01;;;;;;;1.17;1.00;;;;;;;7.05;74.36;96323.00;5093866;28;20077;-66
2022/09/20 04:16:39;;;;;;;1.40;1.10;;;;;;;7.14;72.18;96328.88;5094090;28;20090;-66
2022/09/20 04:19:16;;;;;;;1.20;1.10;;;;;;;7.33;71.24;96331.81;5093998;28;20494;-66
2022/09/20 04:21:50;;;;;;;2.45;1.20;;;;;;;7.51;70.75;96340.84;5093975;28;20468;-66
2022/09/20 04:24:23;;;;;;;1.40;1.30;;;;;;;7.76;69.90;96341.84;5093867;28;20131;-66
2022/09/20 04:26:56;;;;;;;4.82;1.15;;;;;;;7.96;66.79;96344.72;5093919;28;20039;-67
2022/09/20 04:29:36;;;;;;;1.20;1.10;;;;;;;8.20;64.33;96342.25;5093218;28;20121;-66
2022/09/20 04:32:15;;;;;;;1.20;1.10;;;;;;;8.55;64.47;96336.81;5093792;28;20050;-66
2022/09/20 04:37:37;;;;;;;1.20;1.10;;;;;;;9.15;58.80;96351.31;5093753;28;20055;-67
2022/09/20 04:40:15;;;;;;;1.00;0.90;;;;;;;9.35;58.43;96350.63;5093602;28;20105;-66
2022/09/20 04:43:24;;;;;;;3.33;1.05;;;;;;;9.56;58.69;96357.72;5093525;28;20101;-65
2022/09/20 04:46:10;;;;;;;2.95;1.00;;;;;;;9.95;56.52;96348.44;5093622;28;20051;-67
2022/09/20 04:49:07;;;;;;;0.80;0.80;;;;;;;10.76;54.76;96349.63;5093441;28;20051;-67
2022/09/20 04:52:04;;;;;;;1.45;0.85;;;;;;;11.87;50.32;96348.31;5093574;28;20055;-67
2022/09/20 04:55:08;;;;;;;2.25;0.90;;;;;;;12.90;48.38;96351.31;5093435;28;20047;-67
2022/09/20 04:58:04;;;;;;;0.85;0.70;;;;;;;13.78;44.46;96355.59;5093279;28;20052;-67
2022/09/20 05:00:49;;;;;;;0.70;0.70;;;;;;;14.47;42.63;96349.22;5093441;28;20216;-67
2022/09/20 05:04:05;;;;;;;0.80;0.80;;;;;;;14.93;41.45;96352.81;5093410;28;20051;-67
2022/09/20 05:06:51;;;;;;;1.08;0.70;;;;;;;15.52;39.65;96349.31;5051003;28;20052;-66
2022/09/20 05:09:47;;;;;;;0.68;0.57;;;;;;;15.95;38.38;96358.97;5051008;28;20041;-67
2022/09/20 05:12:36;;;;;;;3.60;0.82;;;;;;;16.47;37.60;96358.44;5085783;28;20048;-67
2022/09/20 05:15:23;;;;;;;1.33;0.50;;;;;;;17.08;36.68;96363.28;5092928;28;20056;-67
2022/09/20 05:18:16;;;;;;;1.80;0.75;;;;;;;17.97;34.26;96361.69;5093244;28;20050;-67
2022/09/20 05:21:18;;;;;;;4.28;0.50;;;;;;;18.80;33.27;96364.59;5093039;28;20044;-67
2022/09/20 05:24:03;;;;;;;0.60;0.60;;;;;;;19.25;31.12;96366.56;5093194;28;20055;-67
2022/09/20 05:26:43;;;;;;;0.50;0.50;;;;;;;19.65;31.22;96367.94;5093051;28;20050;-67
2022/09/20 05:29:18;;;;;;;0.80;0.70;;;;;;;20.33;30.35;96368.91;5092786;28;20494;-67
2022/09/20 05:31:52;;;;;;;0.47;0.45;;;;;;;21.12;29.20;96369.63;5093106;28;20473;-67
2022/09/20 05:34:30;;;;;;;1.20;0.60;;;;;;;21.67;28.44;96379.22;5093248;28;20048;-67
2022/09/20 05:37:07;;;;;;;1.38;0.52;;;;;;;22.07;27.03;96372.25;5093067;28;20047;-67
2022/09/20 05:39:39;;;;;;;0.80;0.47;;;;;;;22.07;27.10;96369.59;5093087;28;20093;-67
2022/09/20 05:42:17;;;;;;;0.98;0.47;;;;;;;22.38;27.80;96373.19;5096408;28;20489;-67
2022/09/20 05:44:55;;;;;;;0.75;0.70;;;;;;;22.53;25.52;96363.00;5097301;28;20106;-67
2022/09/20 05:47:32;;;;;;;0.82;0.50;;;;;;;22.19;26.77;96370.34;5097266;28;20462;-66
2022/09/20 05:50:14;;;;;;;0.85;0.50;;;;;;;21.56;27.29;96364.19;5096839;28;20131;-66
2022/09/20 05:52:53;;;;;;;0.50;0.50;;;;;;;20.10;29.52;96354.84;5097018;28;20104;-66
2022/09/20 05:55:35;;;;;;;0.50;0.50;;;;;;;18.81;30.47;96372.41;5096814;28;20048;-66
2022/09/20 05:58:22;;;;;;;2.92;0.77;;;;;;;17.38;34.45;96367.44;5096579;28;20105;-65
2022/09/20 06:00:54;;;;;;;0.63;0.63;;;;;;;16.67;35.24;96378.25;5096706;28;20087;-65
2022/09/20 06:03:30;;;;;;;0.60;0.60;;;;;;;16.07;36.89;96375.84;5096761;28;20044;-66
2022/09/20 06:06:08;;;;;;;0.70;0.70;;;;;;;16.90;36.22;96366.19;5096534;28;20052;-66
2022/09/20 06:08:57;;;;;;;0.60;0.60;;;;;;;18.26;34.54;96377.28;5096582;28;20485;-66
2022/09/20 06:11:43;;;;;;;1.48;0.70;;;;;;;19.16;31.42;96368.13;5096875;28;20073;-66
2022/09/20 06:14:21;;;;;;;0.88;0.70;;;;;;;18.58;32.01;96371.47;5096455;28;20052;-66
2022/09/20 06:16:58;;;;;;;0.80;0.80;;;;;;;18.37;32.86;96380.03;5096305;28;20087;-66
2022/09/20 06:19:34;;;;;;;0.70;0.70;;;;;;;18.47;33.83;96372.25;5096622;28;20040;-66
2022/09/20 06:22:08;;;;;;;0.60;0.60;;;;;;;19.21;31.90;96364.28;5096302;28;20055;-66
2022/09/20 06:24:43;;;;;;;1.80;0.55;;;;;;;20.02;31.08;96369.53;5096275;28;20044;-66
2022/09/20 06:27:17;;;;;;;2.50;0.77;;;;;;;20.53;30.05;96369.94;5096152;28;20044;-66
2022/09/20 06:29:51;;;;;;;1.38;0.70;;;;;;;21.11;29.13;96378.59;5096097;28;20405;-66
2022/09/20 06:32:19;;;;;;;1.42;0.77;;;;;;;21.38;27.76;96379.03;5095845;28;20094;-67
2022/09/20 06:34:47;;;;;;;0.57;0.57;;;;;;;21.56;26.84;96368.66;5096019;28;20048;-67
2022/09/20 06:43:15;;;;;;;0.60;0.60;;;;;;;19.48;32.41;96379.03;5095885;28;20047;-66
2022/09/20 06:45:43;;;;;;;0.50;0.50;;;;;;;19.34;30.58;96378.28;5095984;28;20052;-66
2022/09/20 06:48:11;;;;;;;0.52;0.40;;;;;;;19.55;30.54;96383.75;5095647;28;20044;-66
2022/09/20 06:50:42;;;;;;;0.57;0.57;;;;;;;20.09;30.39;96377.88;5095646;28;20076;-66
2022/09/20 06:53:14;;;;;;;0.80;0.75;;;;;;;20.74;31.15;96397.56;5095150;28;20512;-67
2022/09/20 06:55:46;;;;;;;0.40;0.40;;;;;;;20.94;28.61;96396.78;5095556;28;20048;-66
2022/09/20 06:58:14;;;;;;;0.60;0.60;;;;;;;20.88;29.88;96388.44;5095604;28;20121;-67
2022/09/20 07:00:41;;;;;;;0.85;0.70;;;;;;;20.95;28.87;96389.66;5095401;28;20080;-67
2022/09/20 07:03:08;;;;;;;0.50;0.50;;;;;;;20.82;29.59;96397.75;5095609;28;20097;-67
2022/09/20 07:05:36;;;;;;;0.45;0.40;;;;;;;20.65;28.63;96397.31;5095791;28;20051;-66
2022/09/20 07:08:03;;;;;;;0.55;0.47;;;;;;;20.31;29.28;96408.03;5095443;28;20413;-66
2022/09/20 07:10:30;;;;;;;0.82;0.70;;;;;;;20.71;29.88;96404.81;5095509;28;20391;-67
2022/09/20 07:13:00;;;;;;;0.77;0.60;;;;;;;20.75;29.16;96401.91;5095547;28;20051;-67
2022/09/20 07:15:28;;;;;;;0.80;0.57;;;;;;;20.89;30.71;96406.91;5095096;28;20051;-66
2022/09/20 07:17:55;;;;;;;0.50;0.50;;;;;;;21.00;29.11;96419.34;5095094;28;20276;-66
2022/09/20 07:20:22;;;;;;;0.60;0.57;;;;;;;21.02;28.86;96413.91;5095247;28;20387;-67
2022/09/20 07:22:51;;;;;;;0.50;0.45;;;;;;;21.01;28.71;96414.91;5095289;28;20410;-66
2022/09/20 07:25:18;;;;;;;0.45;0.45;;;;;;;21.10;29.65;96416.75;5095175;28;20131;-68
2022/09/20 07:27:46;;;;;;;0.60;0.60;;;;;;;21.18;28.64;96424.13;5094981;28;20087;-67
2022/09/20 07:30:15;;;;;;;0.60;0.60;;;;;;;21.26;28.75;96420.81;5095126;28;20492;-68
2022/09/20 07:32:42;;;;;;;2.17;0.55;;;;;;;21.36;27.71;96426.19;5095105;28;20081;-67
2022/09/20 07:35:11;;;;;;;1.00;0.50;;;;;;;21.13;29.35;96435.13;5094905;28;20134;-67
2022/09/20 07:37:40;;;;;;;0.45;0.40;;;;;;;20.84;28.71;96425.88;5094751;28;20055;-67
2022/09/20 07:40:09;;;;;;;0.73;0.63;;;;;;;21.02;30.43;96429.88;5094916;28;20046;-67
2022/09/20 07:42:36;;;;;;;0.47;0.43;;;;;;;21.28;28.83;96424.22;5094671;28;20412;-67
2022/09/20 07:45:04;;;;;;;0.57;0.57;;;;;;;21.45;30.31;96423.63;5095010;28;20070;-67
2022/09/20 07:47:34;;;;;;;1.02;0.50;;;;;;;21.56;29.32;96420.06;5094644;28;20044;-66
2022/09/20 07:50:02;;;;;;;2.60;0.40;;;;;;;21.60;29.53;96428.63;5094645;28;20048;-67
2022/09/20 07:52:29;;;;;;;0.40;0.40;;;;;;;21.62;27.96;96429.34;5094505;28;20052;-67
2022/09/20 07:54:56;;;;;;;0.38;0.30;;;;;;;21.89;28.22;96435.97;5094451;28;20048;-67
2022/09/20 07:57:24;;;;;;;0.50;0.30;;;;;;;21.54;27.87;96423.81;5094700;28;20056;-67
2022/09/20 07:59:51;;;;;;;0.65;0.60;;;;;;;21.31;29.61;96434.59;5094287;28;20044;-66
2022/09/20 08:02:18;;;;;;;1.13;0.70;;;;;;;21.40;28.58;96435.63;5094270;28;20048;-67
2022/09/20 08:04:48;;;;;;;1.20;0.47;;;;;;;21.43;28.67;96446.84;5093380;28;20040;-66
2022/09/20 08:07:15;;;;;;;1.48;0.60;;;;;;;21.33;28.87;96435.28;5094219;28;20044;-66
2022/09/20 08:09:43;;;;;;;0.93;0.50;;;;;;;21.40;29.82;96431.13;5094430;28;20063;-66
2022/09/20 08:12:13;;;;;;;0.95;0.52;;;;;;;21.67;29.34;96436.94;5094031;28;20048;-67
2022/09/20 08:14:41;;;;;;;0.57;0.43;;;;;;;21.61;28.13;96438.28;5094258;28;20062;-67
2022/09/20 08:17:10;;;;;;;0.40;0.40;;;;;;;21.64;28.08;96426.56;5094151;28;20093;-67
2022/09/20 08:19:38;;;;;;;1.52;0.50;;;;;;;21.91;28.70;96430.50;5092874;28;20066;-66
2022/09/20 08:22:09;;;;;;;0.40;0.40;;;;;;;22.08;28.11;96424.56;5094159;28;20123;-67
2022/09/20 08:24:36;;;;;;;;;;;;;;;21.81;27.67;96422.47;5094235;28;20059;-66
2022/09/20 08:27:03;;;;;;;0.30;0.30;;;;;;;21.80;28.10;96412.78;5093825;28;19927;-67
2022/09/20 08:29:31;;;;;;;0.43;0.43;;;;;;;21.89;26.76;96425.31;5093822;28;20091;-66
2022/09/20 08:32:00;;;;;;;0.50;0.43;;;;;;;21.96;26.74;96413.16;5093945;28;20063;-66
2022/09/20 08:34:28;;;;;;;1.58;0.57;;;;;;;22.09;27.69;96404.94;5093886;28;20571;-66
2022/09/20 08:36:55;;;;;;;0.35;0.35;;;;;;;22.19;27.00;96415.63;5093697;28;20460;-66
2022/09/20 08:39:24;;;;;;;4.68;0.50;;;;;;;21.84;28.64;96412.41;5093612;28;20056;-66
2022/09/20 08:41:56;;;;;;;1.52;0.30;;;;;;;22.05;28.92;96416.84;5093585;28;20059;-66
2022/09/20 08:44:28;;;;;;;0.55;0.50;;;;;;;21.67;27.95;96403.16;5093517;28;20135;-66
2022/09/20 08:47:06;;;;;;;0.93;0.38;;;;;;;21.62;29.09;96412.53;5093504;28;20048;-66
2022/09/20 08:49:34;;;;;;;0.52;0.50;;;;;;;21.27;29.96;96402.06;5093560;28;20056;-66
2022/09/20 08:52:02;;;;;;;0.50;0.40;;;;;;;21.27;29.51;96403.88;5093611;28;20054;-66
2022/09/20 08:54:35;;;;;;;0.80;0.40;;;;;;;20.99;30.60;96398.22;5093506;28;20093;-66
2022/09/20 08:57:05;;;;;;;0.70;0.43;;;;;;;20.67;30.06;96391.88;5093556;28;20043;-66
2022/09/20 08:59:33;;;;;;;0.65;0.60;;;;;;;20.67;31.36;96403.38;5093648;28;20062;-66
2022/09/20 09:02:01;;;;;;;0.73;0.55;;;;;;;20.91;29.43;96399.69;5093326;28;20122;-66
2022/09/20 09:04:35;;;;;;;0.40;0.40;;;;;;;20.94;28.14;96398.59;5093194;28;20584;-66
2022/09/20 09:07:03;;;;;;;0.52;0.50;;;;;;;21.02;28.83;96390.84;5093331;28;20055;-66
2022/09/20 09:09:36;;;;;;;0.60;0.60;;;;;;;20.99;30.50;96392.91;5093196;28;20127;-66
2022/09/20 09:12:04;;;;;;;1.42;0.70;;;;;;;20.91;32.47;96391.72;5093367;28;20048;-66
2022/09/20 09:14:51;;;;;;;0.60;0.60;;;;;;;21.16;30.15;96381.69;5093046;28;20114;-66
2022/09/20 09:17:20;;;;;;;2.25;0.50;;;;;;;21.27;28.79;96388.78;5099805;28;20048;-66
2022/09/20 09:19:50;;;;;;;1.48;0.50;;;;;;;20.91;29.65;96380.25;5099950;28;20048;-66
2022/09/20 09:22:25;;;;;;;0.40;0.40;;;;;;;21.00;30.33;96386.59;5100087;28;20457;-66
2022/09/20 09:25:22;;;;;;;1.23;0.40;;;;;;;20.85;29.67;96378.91;5100114;28;20421;-66
2022/09/20 09:27:54;;;;;;;0.55;0.43;;;;;;;20.67;31.13;96383.91;5099985;28;20516;-65
2022/09/20 09:30:25;;;;;;;1.98;0.65;;;;;;;20.49;31.80;96387.09;5099952;28;20079;-66
2022/09/20 09:32:53;;;;;;;0.68;0.50;;;;;;;20.45;32.55;96383.88;5099888;28;20075;-66
2022/09/20 09:35:30;;;;;;;0.40;0.40;;;;;;;20.58;32.96;96385.50;5099781;28;20109;-66
2022/09/20 09:37:59;;;;;;;0.57;0.57;;;;;;;20.69;31.98;96385.50;5099780;28;20048;-67
2022/09/20 09:40:28;;;;;;;0.50;0.50;;;;;;;20.77;29.65;96386.69;5099780;28;20555;-66
2022/09/20 09:42:57;;;;;;;0.88;0.52;;;;;;;20.45;30.31;96385.69;5099770;28;20044;-66
2022/09/20 09:45:31;;;;;;;0.45;0.45;;;;;;;20.40;30.87;96382.53;5099878;28;20103;-66
2022/09/20 09:48:17;;;;;;;2.70;0.40;;;;;;;20.45;32.33;96378.56;5099585;28;20566;-67
2022/09/20 09:50:46;;;;;;;0.47;0.47;;;;;;;20.54;30.47;96373.47;5099722;28;20543;-66
2022/09/20 09:53:16;;;;;;;1.85;0.60;;;;;;;20.56;30.74;96369.69;5099590;28;20062;-66
2022/09/20 09:56:05;;;;;;;1.30;0.40;;;;;;;20.58;31.55;96367.78;5099591;28;20537;-66
2022/09/20 09:58:53;;;;;;;1.92;0.70;;;;;;;20.71;33.38;96391.50;5099616;28;20097;-66
2022/09/20 10:01:30;;;;;;;3.17;0.60;;;;;;;20.67;30.23;96376.78;5099587;28;20044;-66
2022/09/20 10:04:06;;;;;;;2.40;0.50;;;;;;;20.60;31.39;96369.44;5099433;28;20039;-66
2022/09/20 10:06:43;;;;;;;0.55;0.50;;;;;;;20.29;31.19;96365.66;5099509;28;20044;-67
2022/09/20 10:09:21;;;;;;;0.45;0.40;;;;;;;20.36;31.89;96371.31;5099559;28;20052;-66
2022/09/20 10:12:19;;;;;;;1.10;0.47;;;;;;;20.54;30.19;96371.66;5099605;28;20123;-66
2022/09/20 10:15:06;;;;;;;0.88;0.68;;;;;;;20.60;30.39;96364.13;5095643;28;20573;-66
2022/09/20 10:17:46;;;;;;;0.57;0.40;;;;;;;20.53;30.10;96364.63;5099315;28;20142;-66
2022/09/20 10:20:30;;;;;;;;;;;;;;;20.55;31.05;96364.50;5099750;28;20079;-66
2022/09/20 10:23:19;;;;;;;0.32;0.32;;;;;;;20.53;30.52;96363.81;5099373;28;19926;-66
2022/09/20 10:25:55;;;;;;;0.95;0.35;;;;;;;20.23;31.75;96370.63;5099336;28;20481;-66
2022/09/20 10:28:47;;;;;;;0.50;0.50;;;;;;;19.91;31.94;96364.22;5095717;28;20084;-66
2022/09/20 10:31:28;;;;;;;1.08;0.55;;;;;;;19.50;31.36;96369.16;5096190;28;20047;-66
2022/09/20 10:34:01;;;;;;;;;;;;;;;19.55;31.58;96364.31;5096404;28;20118;-66
2022/09/20 10:36:34;;;;;;;0.75;0.50;;;;;;;19.30;32.25;96351.13;5096327;28;19989;-66
2022/09/20 10:39:10;;;;;;;0.40;0.40;;;;;;;19.43;32.25;96358.16;5096133;28;20041;-66
2022/09/20 10:44:56;;;;;;;0.30;0.30;;;;;;;19.94;31.17;96358.66;5096162;28;20047;-66
2022/09/20 10:47:31;;;;;;;3.03;0.30;;;;;;;20.07;32.37;96356.75;5095899;28;20098;-66
2022/09/20 10:50:08;;;;;;;0.43;0.32;;;;;;;20.26;31.24;96365.06;5095731;28;20113;-66
2022/09/20 10:52:52;;;;;;;0.45;0.45;;;;;;;20.27;31.70;96364.09;5095684;28;20044;-66
2022/09/20 10:55:30;;;;;;;0.90;0.47;;;;;;;20.22;30.69;96353.84;5095575;28;20471;-66
2022/09/20 10:58:34;;;;;;;0.32;0.32;;;;;;;20.23;31.23;96342.28;5095646;28;20044;-66
2022/09/20 11:01:10;;;;;;;3.78;0.47;;;;;;;20.13;31.55;96341.28;5095788;28;20055;-66
2022/09/20 11:04:05;;;;;;;1.48;0.50;;;;;;;19.99;31.54;96331.78;5095481;28;20417;-66
2022/09/20 11:06:44;;;;;;;0.40;0.40;;;;;;;20.04;33.43;96340.22;5077454;28;20105;-66
2022/09/20 11:09:18;;;;;;;0.45;0.45;;;;;;;20.14;32.65;96338.53;5095208;28;20044;-66
2022/09/20 11:11:48;;;;;;;1.85;0.60;;;;;;;20.31;32.38;96334.53;5095494;28;20514;-66
2022/09/20 11:14:20;;;;;;;0.60;0.40;;;;;;;20.09;31.22;96332.75;5095165;28;20386;-66
2022/09/20 11:16:54;;;;;;;0.47;0.40;;;;;;;19.87;30.19;96337.06;5095292;28;20047;-66
2022/09/20 11:19:27;;;;;;;0.50;0.50;;;;;;;19.24;31.82;96333.06;5095260;28;20044;-66
2022/09/20 11:22:01;;;;;;;0.77;0.68;;;;;;;19.15;32.25;96326.66;5095129;28;20134;-66
2022/09/20 11:24:33;;;;;;;4.03;0.47;;;;;;;19.10;32.27;96331.47;5095169;28;20044;-66
2022/09/20 11:27:07;;;;;;;3.42;0.50;;;;;;;19.09;32.93;96323.63;5095050;28;20087;-66
2022/09/20 11:29:39;;;;;;;0.75;0.50;;;;;;;19.24;33.39;96314.53;5094905;28;20497;-66
2022/09/20 11:32:14;;;;;;;0.40;0.40;;;;;;;19.49;32.45;96314.41;5095211;28;20085;-66
2022/09/20 11:34:49;;;;;;;2.05;0.50;;;;;;;19.72;33.73;96323.22;5095156;28;20051;-66
2022/09/20 11:37:18;;;;;;;0.65;0.45;;;;;;;19.99;33.57;96323.81;5094873;28;20048;-66
2022/09/20 11:39:51;;;;;;;0.90;0.47;;;;;;;20.07;31.58;96321.41;5094563;28;20055;-66
2022/09/20 11:42:22;;;;;;;2.08;0.35;;;;;;;20.25;32.55;96320.88;5094794;28;20495;-66
2022/09/20 11:44:50;;;;;;;0.68;0.60;;;;;;;20.36;31.04;96320.88;5094766;28;20044;-66
2022/09/20 11:47:24;;;;;;;0.43;0.43;;;;;;;20.08;31.18;96313.31;5094585;28;20048;-66
2022/09/20 11:50:08;;;;;;;0.40;0.40;;;;;;;19.78;32.03;96319.25;5094917;28;20172;-66
2022/09/20 11:52:59;;;;;;;0.95;0.40;;;;;;;19.65;32.59;96317.56;5094605;28;20048;-66
2022/09/20 11:55:43;;;;;;;0.40;0.40;;;;;;;19.56;32.58;96315.59;5094474;28;20535;-66
2022/09/20 11:58:14;;;;;;;0.60;0.60;;;;;;;19.72;32.55;96315.28;5093154;28;20122;-66
2022/09/20 12:00:45;;;;;;;0.65;0.50;;;;;;;19.95;32.77;96316.09;5094386;28;20131;-66
2022/09/20 12:03:30;;;;;;;0.30;0.30;;;;;;;20.09;30.94;96308.88;5094376;28;20048;-66
2022/09/20 12:05:59;;;;;;;0.30;0.30;;;;;;;20.15;32.78;96308.38;5094631;28;20081;-66
2022/09/20 12:08:31;;;;;;;2.30;0.50;;;;;;;20.07;32.49;96306.31;5094210;28;20052;-66
2022/09/20 12:11:04;;;;;;;0.43;0.40;;;;;;;20.00;33.41;96309.56;5094283;28;20046;-66
2022/09/20 12:13:35;;;;;;;1.27;0.30;;;;;;;20.03;32.63;96306.69;5094185;28;20044;-66
2022/09/20 12:16:04;;;;;;;0.68;0.30;;;;;;;20.12;31.88;96299.78;5094219;28;20044;-66
2022/09/20 12:19:01;;;;;;;0.40;0.40;;;;;;;20.10;31.33;96310.53;5094098;28;20577;-66
2022/09/20 12:21:28;;;;;;;0.85;0.55;;;;;;;20.15;31.85;96303.06;5094172;28;20082;-66
2022/09/20 12:24:21;;;;;;;0.30;0.30;;;;;;;20.26;31.61;96299.50;5094102;28;20144;-66
2022/09/20 12:26:50;;;;;;;0.40;0.40;;;;;;;20.21;31.39;96301.72;5093865;28;20048;-66
2022/09/20 12:29:56;;;;;;;0.40;0.40;;;;;;;20.20;31.34;96305.34;5093884;28;20131;-66
2022/09/20 12:32:40;;;;;;;0.40;0.40;;;;;;;20.12;31.86;96308.63;5093761;28;20138;-66
2022/09/20 12:35:44;;;;;;;0.43;0.43;;;;;;;20.04;31.79;96313.69;5093583;28;20083;-66
2022/09/20 12:38:30;;;;;;;0.30;0.28;;;;;;;20.01;31.82;96316.56;5067990;28;20040;-66